Terminal Aerodrome Forecast
Issued by NWS Upton, NY

Current Version | Previous Version | Text Only | Print | Product List | Glossary On
Versions: 1 2 3 4 5 6 7 8 9 10 11 12 13 14 15 16 17 18 19 20 21 22 23 24 25 26 27 28 29
000 FTUS41 KOKX 252348 TAFBDR TAF KBDR 252348Z 2600/2624 04009KT P6SM BKN015 OVC040 FM260300 04009KT P6SM OVC025 FM260500 04010KT P6SM SCT035 BKN060 FM261400 07012KT P6SM SCT025 OVC050 FM261800 08013G19KT P6SM BKN025 OVC050=

USA.gov is the U.S. government's official web portal to all federal, state and local government web resources and services.